sensor_id;sensor_type;location;lat;lon;timestamp;P1;durP1;ratioP1;P2;durP2;ratioP2
13475;SDS011;6810;63.824;20.288;2024-01-25T03:57:56;0.10;;;0.10;;
13475;SDS011;6810;63.824;20.288;2024-01-25T04:00:24;0.73;;;0.10;;
13475;SDS011;6810;63.824;20.288;2024-01-25T04:03:11;0.07;;;0.07;;
13475;SDS011;6810;63.824;20.288;2024-01-25T04:05:58;0.27;;;0.10;;
13475;SDS011;6810;63.824;20.288;2024-01-25T04:08:45;0.43;;;0.10;;
13475;SDS011;6810;63.824;20.288;2024-01-25T04:11:32;0.10;;;0.10;;
13475;SDS011;6810;63.824;20.288;2024-01-25T04:14:19;0.53;;;0.10;;
13475;SDS011;6810;63.824;20.288;2024-01-25T04:17:05;0.87;;;0.20;;
13475;SDS011;6810;63.824;20.288;2024-01-25T04:19:52;0.10;;;0.00;;
13475;SDS011;6810;63.824;20.288;2024-01-25T04:22:39;0.07;;;0.00;;
13475;SDS011;6810;63.824;20.288;2024-01-25T04:25:26;0.37;;;0.10;;
13475;SDS011;6810;63.824;20.288;2024-01-25T04:28:13;0.40;;;0.27;;
13475;SDS011;6810;63.824;20.288;2024-01-25T04:31:01;0.87;;;0.10;;
13475;SDS011;6810;63.824;20.288;2024-01-25T04:33:49;0.83;;;0.10;;
13475;SDS011;6810;63.824;20.288;2024-01-25T04:36:36;0.20;;;0.13;;
13475;SDS011;6810;63.824;20.288;2024-01-25T04:39:23;0.30;;;0.30;;
13475;SDS011;6810;63.824;20.288;2024-01-25T04:41:50;0.53;;;0.10;;
13475;SDS011;6810;63.824;20.288;2024-01-25T04:44:17;0.10;;;0.10;;
13475;SDS011;6810;63.824;20.288;2024-01-25T04:46:44;3.00;;;0.30;;
13475;SDS011;6810;63.824;20.288;2024-01-25T04:49:31;0.10;;;0.10;;
13475;SDS011;6810;63.824;20.288;2024-01-25T04:52:19;0.10;;;0.00;;
13475;SDS011;6810;63.824;20.288;2024-01-25T04:55:06;0.00;;;0.00;;
13475;SDS011;6810;63.824;20.288;2024-01-25T04:57:53;0.83;;;0.10;;
13475;SDS011;6810;63.824;20.288;2024-01-25T05:00:40;1.40;;;0.10;;
13475;SDS011;6810;63.824;20.288;2024-01-25T05:03:27;0.10;;;0.00;;
13475;SDS011;6810;63.824;20.288;2024-01-25T05:06:14;0.10;;;0.10;;
13475;SDS011;6810;63.824;20.288;2024-01-25T05:09:01;0.97;;;0.20;;
13475;SDS011;6810;63.824;20.288;2024-01-25T05:11:47;0.10;;;0.03;;
13475;SDS011;6810;63.824;20.288;2024-01-25T05:14:34;0.97;;;0.00;;
13475;SDS011;6810;63.824;20.288;2024-01-25T05:17:21;0.00;;;0.00;;
13475;SDS011;6810;63.824;20.288;2024-01-25T05:20:08;1.90;;;0.10;;
13475;SDS011;6810;63.824;20.288;2024-01-25T05:22:55;0.00;;;0.00;;
13475;SDS011;6810;63.824;20.288;2024-01-25T05:25:42;0.10;;;0.00;;
13475;SDS011;6810;63.824;20.288;2024-01-25T05:28:29;0.30;;;0.10;;
13475;SDS011;6810;63.824;20.288;2024-01-25T05:31:17;0.17;;;0.10;;
13475;SDS011;6810;63.824;20.288;2024-01-25T05:34:03;0.20;;;0.13;;
13475;SDS011;6810;63.824;20.288;2024-01-25T05:36:51;0.97;;;0.17;;
13475;SDS011;6810;63.824;20.288;2024-01-25T05:39:38;0.10;;;0.10;;
13475;SDS011;6810;63.824;20.288;2024-01-25T05:42:25;0.43;;;0.00;;
13475;SDS011;6810;63.824;20.288;2024-01-25T05:45:12;0.10;;;0.03;;
13475;SDS011;6810;63.824;20.288;2024-01-25T05:47:59;0.00;;;0.00;;
13475;SDS011;6810;63.824;20.288;2024-01-25T05:50:46;0.23;;;0.10;;
13475;SDS011;6810;63.824;20.288;2024-01-25T05:53:33;0.93;;;0.20;;
13475;SDS011;6810;63.824;20.288;2024-01-25T05:56:20;0.40;;;0.10;;
13475;SDS011;6810;63.824;20.288;2024-01-25T05:59:07;0.20;;;0.13;;
13475;SDS011;6810;63.824;20.288;2024-01-25T06:01:54;0.30;;;0.10;;
13475;SDS011;6810;63.824;20.288;2024-01-25T06:04:41;0.97;;;0.10;;
13475;SDS011;6810;63.824;20.288;2024-01-25T06:07:28;0.00;;;0.00;;
13475;SDS011;6810;63.824;20.288;2024-01-25T06:10:15;1.13;;;0.30;;
13475;SDS011;6810;63.824;20.288;2024-01-25T06:13:02;0.27;;;0.00;;
13475;SDS011;6810;63.824;20.288;2024-01-25T06:15:50;0.13;;;0.03;;
13475;SDS011;6810;63.824;20.288;2024-01-25T06:18:36;0.07;;;0.07;;
13475;SDS011;6810;63.824;20.288;2024-01-25T06:21:23;0.03;;;0.03;;
13475;SDS011;6810;63.824;20.288;2024-01-25T06:24:10;0.87;;;0.10;;
13475;SDS011;6810;63.824;20.288;2024-01-25T06:26:57;0.30;;;0.10;;
13475;SDS011;6810;63.824;20.288;2024-01-25T06:29:44;0.10;;;0.10;;
13475;SDS011;6810;63.824;20.288;2024-01-25T06:32:31;2.20;;;0.20;;
13475;SDS011;6810;63.824;20.288;2024-01-25T06:35:18;0.10;;;0.00;;
13475;SDS011;6810;63.824;20.288;2024-01-25T06:38:05;0.93;;;0.10;;
13475;SDS011;6810;63.824;20.288;2024-01-25T06:40:52;0.07;;;0.07;;
13475;SDS011;6810;63.824;20.288;2024-01-25T06:43:39;2.47;;;0.20;;
13475;SDS011;6810;63.824;20.288;2024-01-25T06:46:26;0.40;;;0.10;;
13475;SDS011;6810;63.824;20.288;2024-01-25T06:49:13;0.10;;;0.10;;
13475;SDS011;6810;63.824;20.288;2024-01-25T06:52:00;0.20;;;0.20;;
13475;SDS011;6810;63.824;20.288;2024-01-25T06:54:47;0.83;;;0.10;;
13475;SDS011;6810;63.824;20.288;2024-01-25T06:57:34;1.00;;;0.30;;
13475;SDS011;6810;63.824;20.288;2024-01-25T07:00:21;2.30;;;0.40;;
13475;SDS011;6810;63.824;20.288;2024-01-25T07:03:08;1.30;;;0.20;;
13475;SDS011;6810;63.824;20.288;2024-01-25T07:05:56;1.03;;;0.20;;
13475;SDS011;6810;63.824;20.288;2024-01-25T07:08:42;0.70;;;0.37;;
13475;SDS011;6810;63.824;20.288;2024-01-25T07:11:29;0.93;;;0.40;;
13475;SDS011;6810;63.824;20.288;2024-01-25T07:14:16;0.50;;;0.30;;
13475;SDS011;6810;63.824;20.288;2024-01-25T07:17:03;0.73;;;0.50;;
13475;SDS011;6810;63.824;20.288;2024-01-25T07:19:50;0.87;;;0.40;;
13475;SDS011;6810;63.824;20.288;2024-01-25T07:22:38;1.90;;;0.50;;
13475;SDS011;6810;63.824;20.288;2024-01-25T07:25:25;0.70;;;0.40;;
13475;SDS011;6810;63.824;20.288;2024-01-25T07:28:12;0.47;;;0.27;;
13475;SDS011;6810;63.824;20.288;2024-01-25T07:30:58;0.13;;;0.10;;
13475;SDS011;6810;63.824;20.288;2024-01-25T07:33:45;0.10;;;0.10;;
13475;SDS011;6810;63.824;20.288;2024-01-25T07:36:32;1.53;;;0.33;;
13475;SDS011;6810;63.824;20.288;2024-01-25T07:39:19;0.20;;;0.10;;
13475;SDS011;6810;63.824;20.288;2024-01-25T07:42:06;0.63;;;0.23;;
13475;SDS011;6810;63.824;20.288;2024-01-25T07:44:53;0.20;;;0.20;;
13475;SDS011;6810;63.824;20.288;2024-01-25T07:47:43;0.13;;;0.10;;
13475;SDS011;6810;63.824;20.288;2024-01-25T07:50:40;0.50;;;0.13;;
13475;SDS011;6810;63.824;20.288;2024-01-25T07:53:27;1.10;;;0.20;;
13475;SDS011;6810;63.824;20.288;2024-01-25T07:56:14;0.10;;;0.10;;
13475;SDS011;6810;63.824;20.288;2024-01-25T07:59:01;1.13;;;0.20;;
13475;SDS011;6810;63.824;20.288;2024-01-25T08:01:48;0.73;;;0.27;;
13475;SDS011;6810;63.824;20.288;2024-01-25T08:04:35;0.73;;;0.10;;
13475;SDS011;6810;63.824;20.288;2024-01-25T08:07:22;0.23;;;0.17;;
13475;SDS011;6810;63.824;20.288;2024-01-25T08:10:10;0.20;;;0.10;;
13475;SDS011;6810;63.824;20.288;2024-01-25T08:12:57;0.00;;;0.00;;
13475;SDS011;6810;63.824;20.288;2024-01-25T08:15:44;0.67;;;0.10;;
13475;SDS011;6810;63.824;20.288;2024-01-25T08:18:31;0.37;;;0.20;;
13475;SDS011;6810;63.824;20.288;2024-01-25T08:21:18;1.07;;;0.20;;
13475;SDS011;6810;63.824;20.288;2024-01-25T08:24:05;0.10;;;0.10;;
13475;SDS011;6810;63.824;20.288;2024-01-25T08:26:52;0.43;;;0.10;;
13475;SDS011;6810;63.824;20.288;2024-01-25T08:29:41;0.10;;;0.10;;
13475;SDS011;6810;63.824;20.288;2024-01-25T08:32:28;0.13;;;0.00;;
13475;SDS011;6810;63.824;20.288;2024-01-25T08:35:16;1.13;;;0.30;;
13475;SDS011;6810;63.824;20.288;2024-01-25T08:38:03;1.97;;;0.10;;
13475;SDS011;6810;63.824;20.288;2024-01-25T08:40:50;0.27;;;0.10;;
13475;SDS011;6810;63.824;20.288;2024-01-25T08:43:37;0.33;;;0.03;;
13475;SDS011;6810;63.824;20.288;2024-01-25T08:46:24;0.37;;;0.10;;
13475;SDS011;6810;63.824;20.288;2024-01-25T08:49:11;0.00;;;0.00;;
13475;SDS011;6810;63.824;20.288;2024-01-25T08:51:58;0.40;;;0.10;;
13475;SDS011;6810;63.824;20.288;2024-01-25T08:54:45;0.40;;;0.20;;
13475;SDS011;6810;63.824;20.288;2024-01-25T08:57:33;0.30;;;0.10;;
13475;SDS011;6810;63.824;20.288;2024-01-25T09:00:19;0.97;;;0.10;;
13475;SDS011;6810;63.824;20.288;2024-01-25T09:03:06;1.43;;;0.43;;
13475;SDS011;6810;63.824;20.288;2024-01-25T09:05:53;0.20;;;0.20;;
13475;SDS011;6810;63.824;20.288;2024-01-25T09:08:41;0.77;;;0.40;;
13475;SDS011;6810;63.824;20.288;2024-01-25T09:11:27;1.23;;;0.30;;
13475;SDS011;6810;63.824;20.288;2024-01-25T09:14:14;0.10;;;0.10;;
13475;SDS011;6810;63.824;20.288;2024-01-25T09:17:01;1.80;;;0.30;;
13475;SDS011;6810;63.824;20.288;2024-01-25T09:19:49;0.20;;;0.20;;
13475;SDS011;6810;63.824;20.288;2024-01-25T09:22:39;1.20;;;0.10;;
13475;SDS011;6810;63.824;20.288;2024-01-25T09:25:26;0.93;;;0.30;;
13475;SDS011;6810;63.824;20.288;2024-01-25T09:28:13;0.40;;;0.10;;
13475;SDS011;6810;63.824;20.288;2024-01-25T09:31:00;0.40;;;0.30;;
13475;SDS011;6810;63.824;20.288;2024-01-25T09:33:47;1.53;;;0.30;;
13475;SDS011;6810;63.824;20.288;2024-01-25T09:36:35;4.03;;;0.47;;
13475;SDS011;6810;63.824;20.288;2024-01-25T09:39:22;0.80;;;0.20;;
13475;SDS011;6810;63.824;20.288;2024-01-25T09:42:09;0.10;;;0.10;;
13475;SDS011;6810;63.824;20.288;2024-01-25T09:44:57;0.47;;;0.20;;
13475;SDS011;6810;63.824;20.288;2024-01-25T09:47:45;1.17;;;0.20;;
13475;SDS011;6810;63.824;20.288;2024-01-25T09:50:34;1.30;;;0.30;;
13475;SDS011;6810;63.824;20.288;2024-01-25T09:53:21;0.30;;;0.20;;
13475;SDS011;6810;63.824;20.288;2024-01-25T09:56:10;1.13;;;0.30;;
13475;SDS011;6810;63.824;20.288;2024-01-25T09:58:59;1.67;;;0.10;;
13475;SDS011;6810;63.824;20.288;2024-01-25T10:01:46;0.70;;;0.30;;
13475;SDS011;6810;63.824;20.288;2024-01-25T10:04:59;1.47;;;0.40;;
13475;SDS011;6810;63.824;20.288;2024-01-25T10:07:46;0.90;;;0.30;;
13475;SDS011;6810;63.824;20.288;2024-01-25T10:10:33;0.37;;;0.30;;
13475;SDS011;6810;63.824;20.288;2024-01-25T10:13:20;0.87;;;0.20;;
13475;SDS011;6810;63.824;20.288;2024-01-25T10:16:07;0.97;;;0.40;;
13475;SDS011;6810;63.824;20.288;2024-01-25T10:18:57;0.97;;;0.10;;
13475;SDS011;6810;63.824;20.288;2024-01-25T10:21:44;0.30;;;0.30;;
13475;SDS011;6810;63.824;20.288;2024-01-25T10:24:32;1.03;;;0.33;;
13475;SDS011;6810;63.824;20.288;2024-01-25T10:27:22;0.87;;;0.30;;
13475;SDS011;6810;63.824;20.288;2024-01-25T10:30:09;0.87;;;0.50;;
13475;SDS011;6810;63.824;20.288;2024-01-25T10:32:57;0.67;;;0.40;;
13475;SDS011;6810;63.824;20.288;2024-01-25T10:35:45;1.47;;;0.37;;
13475;SDS011;6810;63.824;20.288;2024-01-25T10:38:34;0.30;;;0.30;;
13475;SDS011;6810;63.824;20.288;2024-01-25T10:41:21;0.80;;;0.60;;
13475;SDS011;6810;63.824;20.288;2024-01-25T10:44:10;1.20;;;0.40;;
13475;SDS011;6810;63.824;20.288;2024-01-25T10:46:57;0.90;;;0.20;;
13475;SDS011;6810;63.824;20.288;2024-01-25T10:49:46;1.90;;;0.27;;
13475;SDS011;6810;63.824;20.288;2024-01-25T10:52:34;0.50;;;0.30;;
13475;SDS011;6810;63.824;20.288;2024-01-25T10:55:23;0.83;;;0.23;;
13475;SDS011;6810;63.824;20.288;2024-01-25T10:58:12;0.30;;;0.20;;
13475;SDS011;6810;63.824;20.288;2024-01-25T11:01:08;0.93;;;0.10;;
13475;SDS011;6810;63.824;20.288;2024-01-25T11:03:55;0.37;;;0.33;;
13475;SDS011;6810;63.824;20.288;2024-01-25T11:06:46;0.47;;;0.20;;
13475;SDS011;6810;63.824;20.288;2024-01-25T11:09:34;1.10;;;0.30;;
13475;SDS011;6810;63.824;20.288;2024-01-25T11:12:22;0.83;;;0.20;;
13475;SDS011;6810;63.824;20.288;2024-01-25T11:15:09;0.60;;;0.20;;
13475;SDS011;6810;63.824;20.288;2024-01-25T11:17:56;0.13;;;0.07;;
13475;SDS011;6810;63.824;20.288;2024-01-25T11:20:46;0.20;;;0.20;;
13475;SDS011;6810;63.824;20.288;2024-01-25T11:23:34;0.90;;;0.10;;
13475;SDS011;6810;63.824;20.288;2024-01-25T11:26:24;0.23;;;0.10;;
13475;SDS011;6810;63.824;20.288;2024-01-25T11:29:15;0.70;;;0.10;;
13475;SDS011;6810;63.824;20.288;2024-01-25T11:32:05;0.70;;;0.20;;
13475;SDS011;6810;63.824;20.288;2024-01-25T11:34:59;0.07;;;0.07;;
13475;SDS011;6810;63.824;20.288;2024-01-25T11:37:50;1.03;;;0.07;;
13475;SDS011;6810;63.824;20.288;2024-01-25T11:40:40;1.33;;;0.60;;
13475;SDS011;6810;63.824;20.288;2024-01-25T11:43:27;1.20;;;0.70;;
13475;SDS011;6810;63.824;20.288;2024-01-25T11:46:14;1.80;;;0.57;;
13475;SDS011;6810;63.824;20.288;2024-01-25T11:49:04;0.40;;;0.33;;
13475;SDS011;6810;63.824;20.288;2024-01-25T11:51:51;0.70;;;0.30;;
13475;SDS011;6810;63.824;20.288;2024-01-25T11:54:38;1.50;;;0.37;;
13475;SDS011;6810;63.824;20.288;2024-01-25T11:57:25;1.73;;;0.37;;
13475;SDS011;6810;63.824;20.288;2024-01-25T12:00:13;0.60;;;0.60;;
13475;SDS011;6810;63.824;20.288;2024-01-25T12:03:01;0.20;;;0.20;;
13475;SDS011;6810;63.824;20.288;2024-01-25T12:05:49;0.93;;;0.30;;
13475;SDS011;6810;63.824;20.288;2024-01-25T12:08:36;2.90;;;0.50;;
13475;SDS011;6810;63.824;20.288;2024-01-25T12:11:23;0.30;;;0.23;;
13475;SDS011;6810;63.824;20.288;2024-01-25T12:14:10;0.47;;;0.20;;
13475;SDS011;6810;63.824;20.288;2024-01-25T12:16:57;1.90;;;0.20;;
13475;SDS011;6810;63.824;20.288;2024-01-25T12:19:44;0.37;;;0.30;;
13475;SDS011;6810;63.824;20.288;2024-01-25T12:22:31;0.57;;;0.40;;
13475;SDS011;6810;63.824;20.288;2024-01-25T12:25:18;0.30;;;0.20;;
13475;SDS011;6810;63.824;20.288;2024-01-25T12:28:05;0.80;;;0.20;;
13475;SDS011;6810;63.824;20.288;2024-01-25T12:30:52;0.10;;;0.10;;
13475;SDS011;6810;63.824;20.288;2024-01-25T12:33:41;2.40;;;0.30;;
13475;SDS011;6810;63.824;20.288;2024-01-25T12:36:29;0.10;;;0.10;;
13475;SDS011;6810;63.824;20.288;2024-01-25T12:39:16;0.40;;;0.10;;
13475;SDS011;6810;63.824;20.288;2024-01-25T12:42:03;0.43;;;0.20;;
13475;SDS011;6810;63.824;20.288;2024-01-25T12:44:53;1.13;;;0.20;;
13475;SDS011;6810;63.824;20.288;2024-01-25T12:47:40;3.13;;;0.40;;
13475;SDS011;6810;63.824;20.288;2024-01-25T12:50:28;0.53;;;0.20;;
13475;SDS011;6810;63.824;20.288;2024-01-25T12:53:15;0.93;;;0.23;;
13475;SDS011;6810;63.824;20.288;2024-01-25T12:56:03;0.50;;;0.20;;
13475;SDS011;6810;63.824;20.288;2024-01-25T12:58:50;0.83;;;0.30;;
13475;SDS011;6810;63.824;20.288;2024-01-25T13:01:37;0.50;;;0.23;;
13475;SDS011;6810;63.824;20.288;2024-01-25T13:04:04;0.63;;;0.40;;
13475;SDS011;6810;63.824;20.288;2024-01-25T13:06:55;0.50;;;0.30;;
13475;SDS011;6810;63.824;20.288;2024-01-25T13:09:42;0.40;;;0.30;;
13475;SDS011;6810;63.824;20.288;2024-01-25T13:12:29;0.57;;;0.33;;
13475;SDS011;6810;63.824;20.288;2024-01-25T13:15:16;2.47;;;0.30;;
13475;SDS011;6810;63.824;20.288;2024-01-25T13:18:04;0.23;;;0.23;;
13475;SDS011;6810;63.824;20.288;2024-01-25T13:20:51;0.53;;;0.20;;
13475;SDS011;6810;63.824;20.288;2024-01-25T13:23:38;0.43;;;0.20;;
13475;SDS011;6810;63.824;20.288;2024-01-25T13:26:25;0.87;;;0.20;;
13475;SDS011;6810;63.824;20.288;2024-01-25T13:29:11;0.70;;;0.40;;
13475;SDS011;6810;63.824;20.288;2024-01-25T13:31:58;0.40;;;0.20;;
13475;SDS011;6810;63.824;20.288;2024-01-25T13:34:45;0.77;;;0.30;;
13475;SDS011;6810;63.824;20.288;2024-01-25T13:37:32;0.53;;;0.30;;
13475;SDS011;6810;63.824;20.288;2024-01-25T13:40:19;1.40;;;0.30;;
13475;SDS011;6810;63.824;20.288;2024-01-25T13:43:06;1.03;;;0.30;;
13475;SDS011;6810;63.824;20.288;2024-01-25T13:45:54;0.30;;;0.30;;
13475;SDS011;6810;63.824;20.288;2024-01-25T13:48:41;0.57;;;0.27;;
13475;SDS011;6810;63.824;20.288;2024-01-25T13:51:28;0.60;;;0.27;;
13475;SDS011;6810;63.824;20.288;2024-01-25T13:54:15;0.70;;;0.30;;
13475;SDS011;6810;63.824;20.288;2024-01-25T13:57:03;0.50;;;0.20;;
13475;SDS011;6810;63.824;20.288;2024-01-25T13:59:50;1.20;;;0.20;;
13475;SDS011;6810;63.824;20.288;2024-01-25T14:02:39;0.30;;;0.30;;
13475;SDS011;6810;63.824;20.288;2024-01-25T14:05:27;0.50;;;0.40;;
13475;SDS011;6810;63.824;20.288;2024-01-25T14:08:14;0.63;;;0.40;;
13475;SDS011;6810;63.824;20.288;2024-01-25T14:11:02;1.47;;;0.30;;
13475;SDS011;6810;63.824;20.288;2024-01-25T14:13:50;0.40;;;0.23;;
13475;SDS011;6810;63.824;20.288;2024-01-25T14:16:37;0.77;;;0.40;;
13475;SDS011;6810;63.824;20.288;2024-01-25T14:19:24;2.30;;;0.73;;
13475;SDS011;6810;63.824;20.288;2024-01-25T14:22:11;1.13;;;0.40;;
13475;SDS011;6810;63.824;20.288;2024-01-25T14:25:01;0.63;;;0.50;;
13475;SDS011;6810;63.824;20.288;2024-01-25T14:27:48;2.00;;;0.80;;
13475;SDS011;6810;63.824;20.288;2024-01-25T14:30:36;1.37;;;0.60;;
13475;SDS011;6810;63.824;20.288;2024-01-25T14:33:23;0.67;;;0.47;;
13475;SDS011;6810;63.824;20.288;2024-01-25T14:36:12;1.47;;;0.83;;
13475;SDS011;6810;63.824;20.288;2024-01-25T14:38:59;1.13;;;0.80;;
13475;SDS011;6810;63.824;20.288;2024-01-25T14:41:46;0.67;;;0.67;;
13475;SDS011;6810;63.824;20.288;2024-01-25T14:44:33;3.30;;;0.80;;
13475;SDS011;6810;63.824;20.288;2024-01-25T14:47:20;0.70;;;0.57;;
13475;SDS011;6810;63.824;20.288;2024-01-25T14:50:07;1.03;;;0.70;;
13475;SDS011;6810;63.824;20.288;2024-01-25T14:52:54;1.30;;;0.80;;
13475;SDS011;6810;63.824;20.288;2024-01-25T14:55:41;1.33;;;0.70;;
13475;SDS011;6810;63.824;20.288;2024-01-25T14:58:27;1.33;;;0.70;;
13475;SDS011;6810;63.824;20.288;2024-01-25T15:01:15;0.90;;;0.80;;
13475;SDS011;6810;63.824;20.288;2024-01-25T15:04:02;5.00;;;1.00;;
13475;SDS011;6810;63.824;20.288;2024-01-25T15:06:49;1.50;;;1.00;;
13475;SDS011;6810;63.824;20.288;2024-01-25T15:09:37;1.67;;;0.90;;
13475;SDS011;6810;63.824;20.288;2024-01-25T15:12:27;1.60;;;0.90;;
13475;SDS011;6810;63.824;20.288;2024-01-25T15:15:14;1.17;;;0.67;;
13475;SDS011;6810;63.824;20.288;2024-01-25T15:18:01;1.83;;;0.60;;
13475;SDS011;6810;63.824;20.288;2024-01-25T15:20:49;4.23;;;0.77;;
13475;SDS011;6810;63.824;20.288;2024-01-25T15:23:36;1.70;;;0.73;;
13475;SDS011;6810;63.824;20.288;2024-01-25T15:26:22;0.97;;;0.83;;
13475;SDS011;6810;63.824;20.288;2024-01-25T15:29:09;1.73;;;0.80;;
13475;SDS011;6810;63.824;20.288;2024-01-25T15:31:56;1.23;;;1.10;;
13475;SDS011;6810;63.824;20.288;2024-01-25T15:34:43;1.20;;;1.07;;
13475;SDS011;6810;63.824;20.288;2024-01-25T15:37:30;1.77;;;0.67;;
13475;SDS011;6810;63.824;20.288;2024-01-25T15:40:17;2.00;;;0.70;;
13475;SDS011;6810;63.824;20.288;2024-01-25T15:43:04;1.10;;;0.80;;
13475;SDS011;6810;63.824;20.288;2024-01-25T15:45:51;1.90;;;0.70;;
13475;SDS011;6810;63.824;20.288;2024-01-25T15:48:38;2.60;;;0.90;;
13475;SDS011;6810;63.824;20.288;2024-01-25T15:51:25;1.20;;;0.60;;
13475;SDS011;6810;63.824;20.288;2024-01-25T15:54:12;0.93;;;0.70;;
13475;SDS011;6810;63.824;20.288;2024-01-25T15:56:59;1.40;;;0.63;;
13475;SDS011;6810;63.824;20.288;2024-01-25T15:59:46;2.33;;;0.90;;
13475;SDS011;6810;63.824;20.288;2024-01-25T16:02:36;1.43;;;0.73;;
13475;SDS011;6810;63.824;20.288;2024-01-25T16:05:23;2.20;;;0.93;;
13475;SDS011;6810;63.824;20.288;2024-01-25T16:08:10;2.13;;;0.63;;
13475;SDS011;6810;63.824;20.288;2024-01-25T16:10:57;2.37;;;0.90;;
13475;SDS011;6810;63.824;20.288;2024-01-25T16:13:44;1.43;;;0.70;;
13475;SDS011;6810;63.824;20.288;2024-01-25T16:16:31;2.00;;;1.00;;
13475;SDS011;6810;63.824;20.288;2024-01-25T16:19:18;1.43;;;0.60;;
13475;SDS011;6810;63.824;20.288;2024-01-25T16:22:05;2.27;;;0.90;;
13475;SDS011;6810;63.824;20.288;2024-01-25T16:24:52;0.67;;;0.67;;
13475;SDS011;6810;63.824;20.288;2024-01-25T16:27:39;0.70;;;0.60;;
13475;SDS011;6810;63.824;20.288;2024-01-25T16:30:26;1.90;;;0.97;;
13475;SDS011;6810;63.824;20.288;2024-01-25T16:33:13;0.90;;;0.80;;
13475;SDS011;6810;63.824;20.288;2024-01-25T16:36:00;3.33;;;0.87;;
13475;SDS011;6810;63.824;20.288;2024-01-25T16:38:47;1.33;;;0.77;;
13475;SDS011;6810;63.824;20.288;2024-01-25T16:41:34;1.20;;;0.70;;
13475;SDS011;6810;63.824;20.288;2024-01-25T16:44:21;1.23;;;0.60;;
13475;SDS011;6810;63.824;20.288;2024-01-25T16:47:07;0.87;;;0.60;;
13475;SDS011;6810;63.824;20.288;2024-01-25T16:49:55;1.37;;;0.60;;
13475;SDS011;6810;63.824;20.288;2024-01-25T16:52:42;1.20;;;0.67;;
13475;SDS011;6810;63.824;20.288;2024-01-25T16:55:29;1.03;;;0.63;;
13475;SDS011;6810;63.824;20.288;2024-01-25T16:58:16;2.27;;;0.60;;
13475;SDS011;6810;63.824;20.288;2024-01-25T17:01:04;1.73;;;0.83;;
13475;SDS011;6810;63.824;20.288;2024-01-25T17:03:52;0.73;;;0.57;;
13475;SDS011;6810;63.824;20.288;2024-01-25T17:06:39;1.33;;;0.63;;
13475;SDS011;6810;63.824;20.288;2024-01-25T17:09:26;1.17;;;0.77;;
13475;SDS011;6810;63.824;20.288;2024-01-25T17:12:13;0.60;;;0.60;;
13475;SDS011;6810;63.824;20.288;2024-01-25T17:15:00;2.17;;;0.70;;
13475;SDS011;6810;63.824;20.288;2024-01-25T17:17:47;1.50;;;1.03;;
13475;SDS011;6810;63.824;20.288;2024-01-25T17:20:34;2.33;;;1.60;;
13475;SDS011;6810;63.824;20.288;2024-01-25T17:23:21;2.90;;;1.40;;
13475;SDS011;6810;63.824;20.288;2024-01-25T17:26:08;1.70;;;1.60;;
13475;SDS011;6810;63.824;20.288;2024-01-25T17:28:56;1.67;;;1.30;;
13475;SDS011;6810;63.824;20.288;2024-01-25T17:31:43;3.20;;;1.50;;
13475;SDS011;6810;63.824;20.288;2024-01-25T17:34:29;2.17;;;1.63;;
13475;SDS011;6810;63.824;20.288;2024-01-25T17:37:17;1.77;;;1.47;;
13475;SDS011;6810;63.824;20.288;2024-01-25T17:40:03;3.50;;;1.30;;
13475;SDS011;6810;63.824;20.288;2024-01-25T17:42:51;2.17;;;1.20;;
13475;SDS011;6810;63.824;20.288;2024-01-25T17:45:50;1.57;;;1.17;;
13475;SDS011;6810;63.824;20.288;2024-01-25T17:48:37;2.10;;;1.17;;
13475;SDS011;6810;63.824;20.288;2024-01-25T17:51:24;4.80;;;1.13;;
13475;SDS011;6810;63.824;20.288;2024-01-25T17:54:11;1.87;;;1.40;;
13475;SDS011;6810;63.824;20.288;2024-01-25T17:56:58;1.87;;;1.17;;
13475;SDS011;6810;63.824;20.288;2024-01-25T17:59:45;1.33;;;0.87;;
13475;SDS011;6810;63.824;20.288;2024-01-25T18:02:32;4.53;;;1.20;;
13475;SDS011;6810;63.824;20.288;2024-01-25T18:05:19;3.43;;;1.20;;
13475;SDS011;6810;63.824;20.288;2024-01-25T18:08:06;2.67;;;1.37;;
13475;SDS011;6810;63.824;20.288;2024-01-25T18:10:53;3.17;;;1.10;;
13475;SDS011;6810;63.824;20.288;2024-01-25T18:13:40;2.87;;;1.30;;
13475;SDS011;6810;63.824;20.288;2024-01-25T18:16:27;3.80;;;1.00;;
13475;SDS011;6810;63.824;20.288;2024-01-25T18:19:14;0.87;;;0.80;;
13475;SDS011;6810;63.824;20.288;2024-01-25T18:22:01;2.33;;;1.20;;
13475;SDS011;6810;63.824;20.288;2024-01-25T18:24:48;1.10;;;0.80;;
13475;SDS011;6810;63.824;20.288;2024-01-25T18:27:35;2.23;;;1.10;;
13475;SDS011;6810;63.824;20.288;2024-01-25T18:30:22;1.20;;;0.83;;
13475;SDS011;6810;63.824;20.288;2024-01-25T18:33:09;4.37;;;1.20;;
13475;SDS011;6810;63.824;20.288;2024-01-25T18:35:56;2.73;;;1.00;;
13475;SDS011;6810;63.824;20.288;2024-01-25T18:38:43;1.10;;;0.93;;
13475;SDS011;6810;63.824;20.288;2024-01-25T18:41:30;1.27;;;0.90;;
13475;SDS011;6810;63.824;20.288;2024-01-25T18:44:17;0.80;;;0.80;;
13475;SDS011;6810;63.824;20.288;2024-01-25T18:47:04;1.50;;;0.97;;
13475;SDS011;6810;63.824;20.288;2024-01-25T18:49:51;1.67;;;0.70;;
13475;SDS011;6810;63.824;20.288;2024-01-25T18:52:38;0.53;;;0.50;;
13475;SDS011;6810;63.824;20.288;2024-01-25T18:55:25;0.73;;;0.63;;
13475;SDS011;6810;63.824;20.288;2024-01-25T18:58:12;0.50;;;0.50;;
13475;SDS011;6810;63.824;20.288;2024-01-25T19:00:59;2.50;;;0.70;;
13475;SDS011;6810;63.824;20.288;2024-01-25T19:03:47;1.10;;;0.40;;
13475;SDS011;6810;63.824;20.288;2024-01-25T19:06:34;0.97;;;0.73;;
13475;SDS011;6810;63.824;20.288;2024-01-25T19:09:22;1.27;;;0.60;;
13475;SDS011;6810;63.824;20.288;2024-01-25T19:12:10;0.73;;;0.40;;
13475;SDS011;6810;63.824;20.288;2024-01-25T19:14:57;1.53;;;0.70;;
13475;SDS011;6810;63.824;20.288;2024-01-25T19:17:44;2.17;;;0.80;;
13475;SDS011;6810;63.824;20.288;2024-01-25T19:20:31;1.10;;;0.87;;
13475;SDS011;6810;63.824;20.288;2024-01-25T19:23:18;2.57;;;0.80;;
13475;SDS011;6810;63.824;20.288;2024-01-25T19:26:05;1.63;;;1.00;;
13475;SDS011;6810;63.824;20.288;2024-01-25T19:28:52;1.07;;;0.70;;
13475;SDS011;6810;63.824;20.288;2024-01-25T19:31:39;0.83;;;0.50;;
13475;SDS011;6810;63.824;20.288;2024-01-25T19:34:26;1.20;;;0.77;;
13475;SDS011;6810;63.824;20.288;2024-01-25T19:37:14;3.13;;;0.87;;
13475;SDS011;6810;63.824;20.288;2024-01-25T19:40:01;0.60;;;0.50;;
13475;SDS011;6810;63.824;20.288;2024-01-25T19:42:48;1.63;;;0.90;;
13475;SDS011;6810;63.824;20.288;2024-01-25T19:45:35;0.60;;;0.60;;
13475;SDS011;6810;63.824;20.288;2024-01-25T19:48:22;0.93;;;0.73;;
13475;SDS011;6810;63.824;20.288;2024-01-25T19:51:09;1.50;;;0.80;;
13475;SDS011;6810;63.824;20.288;2024-01-25T19:53:56;0.77;;;0.63;;
13475;SDS011;6810;63.824;20.288;2024-01-25T19:56:42;1.23;;;0.60;;
13475;SDS011;6810;63.824;20.288;2024-01-25T19:59:29;1.47;;;0.80;;
13475;SDS011;6810;63.824;20.288;2024-01-25T20:02:17;1.70;;;0.87;;
13475;SDS011;6810;63.824;20.288;2024-01-25T20:05:04;2.23;;;0.67;;
13475;SDS011;6810;63.824;20.288;2024-01-25T20:07:51;3.43;;;1.40;;
13475;SDS011;6810;63.824;20.288;2024-01-25T20:10:39;2.93;;;1.20;;
13475;SDS011;6810;63.824;20.288;2024-01-25T20:13:26;2.90;;;1.20;;
13475;SDS011;6810;63.824;20.288;2024-01-25T20:16:13;2.80;;;1.03;;
13475;SDS011;6810;63.824;20.288;2024-01-25T20:19:00;2.10;;;1.10;;
13475;SDS011;6810;63.824;20.288;2024-01-25T20:21:47;2.17;;;1.20;;
13475;SDS011;6810;63.824;20.288;2024-01-25T20:24:34;1.23;;;1.13;;
13475;SDS011;6810;63.824;20.288;2024-01-25T20:27:21;0.60;;;0.60;;
13475;SDS011;6810;63.824;20.288;2024-01-25T20:30:08;1.57;;;1.00;;
13475;SDS011;6810;63.824;20.288;2024-01-25T20:32:36;1.80;;;0.87;;
13475;SDS011;6810;63.824;20.288;2024-01-25T20:35:03;2.07;;;1.00;;
13475;SDS011;6810;63.824;20.288;2024-01-25T20:37:30;3.57;;;1.20;;
13475;SDS011;6810;63.824;20.288;2024-01-25T20:39:57;1.40;;;0.90;;
13475;SDS011;6810;63.824;20.288;2024-01-25T20:42:44;2.87;;;1.17;;